Time;durP1;ratioP1;P1;durP2;ratioP2;P2;SDS_P1;SDS_P2;PMS_P1;PMS_P2;Temp;Humidity;BMP_temperature;BMP_pressure;BME280_temperature;BME280_humidity;BME280_pressure;Samples;Min_cycle;Max_cycle;Signal;HPM_P1;HPM_P2
2023/04/30 00:01:34;;;;;;;3.53;2.28;;;;;;;;;;4983520;28;20457;-75
2023/04/30 00:04:01;;;;;;;3.97;2.35;;;;;;;;;;4997744;28;20041;-75
2023/04/30 00:06:27;;;;;;;3.72;2.70;;;;;;;;;;4997679;28;20394;-74
2023/04/30 00:08:53;;;;;;;6.60;2.70;;;;;;;;;;5004365;28;20113;-76
2023/04/30 00:11:19;;;;;;;3.38;2.47;;;;;;;;;;5003804;28;20057;-75
2023/04/30 00:13:45;;;;;;;3.53;2.35;;;;;;;;;;5005068;28;20677;-75
2023/04/30 00:16:12;;;;;;;6.75;2.85;;;;;;;;;;4999576;28;20041;-75
2023/04/30 00:18:38;;;;;;;5.03;3.13;;;;;;;;;;5005541;28;20037;-75
2023/04/30 00:21:04;;;;;;;5.80;3.17;;;;;;;;;;5007415;28;20113;-74
2023/04/30 00:23:30;;;;;;;5.90;3.00;;;;;;;;;;5003074;28;20033;-76
2023/04/30 00:25:57;;;;;;;4.30;2.90;;;;;;;;;;4997443;28;20032;-75
2023/04/30 00:28:23;;;;;;;5.82;2.90;;;;;;;;;;5004464;28;20128;-75
2023/04/30 00:30:49;;;;;;;4.55;2.70;;;;;;;;;;5001454;28;20061;-74
2023/04/30 00:33:15;;;;;;;6.22;3.10;;;;;;;;;;5003486;28;20026;-74
2023/04/30 00:35:42;;;;;;;7.80;3.72;;;;;;;;;;4997502;28;20088;-75
2023/04/30 00:38:08;;;;;;;7.40;2.83;;;;;;;;;;5006295;28;20513;-75
2023/04/30 00:40:35;;;;;;;4.30;3.30;;;;;;;;;;4984493;28;20149;-75
2023/04/30 00:43:01;;;;;;;5.07;2.95;;;;;;;;;;5006550;28;20061;-75
2023/04/30 00:45:27;;;;;;;6.00;3.10;;;;;;;;;;5001871;28;20081;-75
2023/04/30 00:47:53;;;;;;;4.13;3.00;;;;;;;;;;5007324;28;20087;-75
2023/04/30 00:50:19;;;;;;;5.85;3.22;;;;;;;;;;5000075;28;20080;-75
2023/04/30 00:52:45;;;;;;;4.78;3.10;;;;;;;;;;5002824;28;20032;-75
2023/04/30 00:55:12;;;;;;;5.35;3.33;;;;;;;;;;5000086;28;20026;-75
2023/04/30 00:57:42;;;;;;;5.15;3.20;;;;;;;;;;5007239;28;20393;-74
2023/04/30 01:00:09;;;;;;;4.35;3.00;;;;;;;;;;5000606;28;20050;-75
2023/04/30 01:02:36;;;;;;;7.43;2.78;;;;;;;;;;4992489;28;20569;-74
2023/04/30 01:05:02;;;;;;;9.52;3.47;;;;;;;;;;5003886;28;20029;-74
2023/04/30 01:07:29;;;;;;;3.78;2.90;;;;;;;;;;5004970;28;20083;-74
2023/04/30 01:09:55;;;;;;;4.45;2.95;;;;;;;;;;5001919;28;20025;-75
2023/04/30 01:12:27;;;;;;;6.22;3.20;;;;;;;;;;4998834;28;20101;-76
2023/04/30 01:15:04;;;;;;;5.50;3.33;;;;;;;;;;5003358;28;20113;-75
2023/04/30 01:17:34;;;;;;;9.70;4.90;;;;;;;;;;5006531;28;20144;-75
2023/04/30 01:20:01;;;;;;;5.28;4.05;;;;;;;;;;4999835;28;20470;-75
2023/04/30 01:22:27;;;;;;;8.45;4.47;;;;;;;;;;5006311;28;20018;-74
2023/04/30 01:25:12;;;;;;;7.85;3.95;;;;;;;;;;4997875;28;20101;-75
2023/04/30 01:27:57;;;;;;;6.25;3.85;;;;;;;;;;5003051;28;20030;-75
2023/04/30 01:30:24;;;;;;;6.55;3.50;;;;;;;;;;4994450;28;20047;-76
2023/04/30 01:32:50;;;;;;;6.72;3.60;;;;;;;;;;5000489;28;20029;-75
2023/04/30 01:35:16;;;;;;;5.50;3.72;;;;;;;;;;4997873;28;20022;-75
2023/04/30 01:37:45;;;;;;;6.95;3.58;;;;;;;;;;5006473;28;20355;-75
2023/04/30 01:40:28;;;;;;;5.50;3.80;;;;;;;;;;4999836;28;20028;-75
2023/04/30 01:43:21;;;;;;;7.75;4.15;;;;;;;;;;4998285;28;20071;-75
2023/04/30 01:45:47;;;;;;;5.35;3.60;;;;;;;;;;4968894;28;20050;-75
2023/04/30 01:48:27;;;;;;;6.13;3.45;;;;;;;;;;5000406;28;20066;-74
2023/04/30 01:51:05;;;;;;;5.35;3.90;;;;;;;;;;5004892;28;20030;-74
2023/04/30 01:53:36;;;;;;;5.47;3.42;;;;;;;;;;5001152;28;20014;-74
2023/04/30 01:56:03;;;;;;;6.78;3.47;;;;;;;;;;4999257;28;20120;-76
2023/04/30 01:58:30;;;;;;;5.13;3.40;;;;;;;;;;4987376;28;20109;-75
2023/04/30 02:00:56;;;;;;;6.85;3.53;;;;;;;;;;4994327;28;20074;-74
2023/04/30 02:03:22;;;;;;;5.43;3.35;;;;;;;;;;4999507;28;20113;-74
2023/04/30 02:05:49;;;;;;;5.47;3.50;;;;;;;;;;4995601;28;20030;-74
2023/04/30 02:08:16;;;;;;;4.60;3.80;;;;;;;;;;4997762;28;20495;-74
2023/04/30 02:10:42;;;;;;;6.82;3.60;;;;;;;;;;4991755;28;20037;-74
2023/04/30 02:13:08;;;;;;;6.05;3.30;;;;;;;;;;4982013;28;20447;-74
2023/04/30 02:15:34;;;;;;;6.45;3.10;;;;;;;;;;4992154;28;20053;-74
2023/04/30 02:18:00;;;;;;;7.88;3.33;;;;;;;;;;5001259;28;20018;-74
2023/04/30 02:20:26;;;;;;;3.17;2.63;;;;;;;;;;4999430;28;20540;-74
2023/04/30 02:22:53;;;;;;;5.53;3.10;;;;;;;;;;5000889;28;20092;-73
2023/04/30 02:25:19;;;;;;;7.45;3.58;;;;;;;;;;4992027;28;20827;-75
2023/04/30 02:27:45;;;;;;;6.05;3.13;;;;;;;;;;4993359;28;20053;-74
2023/04/30 02:30:11;;;;;;;6.55;3.40;;;;;;;;;;4991524;28;20026;-74
2023/04/30 02:32:38;;;;;;;6.40;3.55;;;;;;;;;;4998463;28;20097;-75
2023/04/30 02:35:04;;;;;;;10.93;3.75;;;;;;;;;;4994296;28;20776;-74
2023/04/30 02:37:30;;;;;;;5.60;3.33;;;;;;;;;;4999205;28;20077;-75
2023/04/30 02:39:56;;;;;;;6.50;3.88;;;;;;;;;;4991034;28;20026;-75
2023/04/30 02:42:23;;;;;;;7.40;3.50;;;;;;;;;;4997760;28;20061;-74
2023/04/30 02:44:49;;;;;;;7.30;3.92;;;;;;;;;;4989988;28;20037;-74
2023/04/30 02:47:15;;;;;;;6.30;4.03;;;;;;;;;;5000612;28;20037;-74
2023/04/30 02:49:41;;;;;;;4.75;3.47;;;;;;;;;;4976621;28;20031;-74
2023/04/30 02:52:08;;;;;;;6.93;3.70;;;;;;;;;;4996428;28;20030;-75
2023/04/30 02:54:35;;;;;;;5.93;4.30;;;;;;;;;;4993398;28;20053;-74
2023/04/30 02:57:01;;;;;;;8.13;4.03;;;;;;;;;;5000916;28;20022;-74
2023/04/30 02:59:27;;;;;;;7.75;3.72;;;;;;;;;;4989574;28;20161;-74
2023/04/30 03:01:53;;;;;;;8.00;4.45;;;;;;;;;;4998881;28;20049;-74
2023/04/30 03:04:20;;;;;;;5.95;4.03;;;;;;;;;;4999213;28;20113;-74
2023/04/30 03:06:46;;;;;;;6.13;4.30;;;;;;;;;;4999232;28;20037;-74
2023/04/30 03:09:12;;;;;;;7.65;3.88;;;;;;;;;;4996229;28;20129;-74
2023/04/30 03:11:38;;;;;;;4.68;3.85;;;;;;;;;;4996881;28;20084;-74
2023/04/30 03:14:04;;;;;;;7.07;4.45;;;;;;;;;;5002719;28;20025;-75
2023/04/30 03:16:31;;;;;;;8.73;4.55;;;;;;;;;;4999076;28;20117;-74
2023/04/30 03:18:57;;;;;;;11.02;5.80;;;;;;;;;;5000499;28;20036;-74
2023/04/30 03:21:23;;;;;;;13.10;5.32;;;;;;;;;;5002349;28;20087;-75
2023/04/30 03:23:49;;;;;;;8.93;5.63;;;;;;;;;;4998471;28;20116;-75
2023/04/30 03:26:15;;;;;;;9.98;5.10;;;;;;;;;;4996597;28;20025;-74
2023/04/30 03:28:42;;;;;;;7.40;5.10;;;;;;;;;;5002421;28;20083;-75
2023/04/30 03:31:08;;;;;;;7.75;5.00;;;;;;;;;;4997523;28;20026;-74
2023/04/30 03:33:34;;;;;;;8.35;5.60;;;;;;;;;;5000385;28;20060;-74
2023/04/30 03:36:00;;;;;;;7.90;5.28;;;;;;;;;;5002516;28;20034;-74
2023/04/30 03:38:26;;;;;;;7.75;5.85;;;;;;;;;;5002305;28;20910;-75
2023/04/30 03:40:53;;;;;;;7.70;6.00;;;;;;;;;;5000862;28;20109;-74
2023/04/30 03:43:19;;;;;;;9.63;6.40;;;;;;;;;;4998834;28;20030;-75
2023/04/30 03:45:45;;;;;;;11.68;5.75;;;;;;;;;;5003646;28;20041;-74
2023/04/30 03:48:12;;;;;;;8.40;5.78;;;;;;;;;;5000618;28;20060;-74
2023/04/30 03:50:38;;;;;;;10.18;5.82;;;;;;;;;;5001098;28;20137;-74
2023/04/30 03:53:05;;;;;;;9.80;6.32;;;;;;;;;;4997924;28;20029;-75
2023/04/30 03:55:32;;;;;;;6.85;5.57;;;;;;;;;;4996576;28;20015;-74
2023/04/30 03:57:59;;;;;;;7.07;5.70;;;;;;;;;;5002566;28;20193;-74
2023/04/30 04:00:25;;;;;;;7.85;5.32;;;;;;;;;;4996108;28;20041;-74
2023/04/30 04:02:51;;;;;;;8.55;5.28;;;;;;;;;;4993238;28;20048;-74
2023/04/30 04:05:18;;;;;;;7.22;4.65;;;;;;;;;;4995734;28;20037;-75
2023/04/30 04:07:44;;;;;;;8.52;4.03;;;;;;;;;;5001927;28;20113;-74
2023/04/30 04:10:10;;;;;;;7.35;4.07;;;;;;;;;;4995894;28;20112;-74
2023/04/30 04:12:36;;;;;;;6.45;3.83;;;;;;;;;;4994594;28;20068;-74
2023/04/30 04:15:03;;;;;;;9.38;4.97;;;;;;;;;;4996808;28;20026;-74
2023/04/30 04:17:29;;;;;;;8.07;4.88;;;;;;;;;;5002121;28;20018;-74
2023/04/30 04:19:56;;;;;;;7.03;4.43;;;;;;;;;;4995843;28;20045;-74
2023/04/30 04:22:22;;;;;;;5.18;4.25;;;;;;;;;;5001259;28;20028;-75
2023/04/30 04:24:50;;;;;;;5.35;4.03;;;;;;;;;;4995199;28;20156;-74
2023/04/30 04:27:16;;;;;;;5.20;4.20;;;;;;;;;;4999600;28;20430;-74
2023/04/30 04:29:42;;;;;;;7.68;3.53;;;;;;;;;;5001262;28;20108;-75
2023/04/30 04:32:09;;;;;;;5.60;3.33;;;;;;;;;;4995551;28;20022;-74
2023/04/30 04:34:37;;;;;;;4.32;3.08;;;;;;;;;;5001882;28;20029;-74
2023/04/30 04:37:03;;;;;;;4.25;2.58;;;;;;;;;;4998901;28;20492;-75
2023/04/30 04:39:29;;;;;;;3.05;2.25;;;;;;;;;;4996970;28;20050;-75
2023/04/30 04:41:57;;;;;;;3.35;2.63;;;;;;;;;;4992396;28;20693;-74
2023/04/30 04:44:23;;;;;;;4.47;3.15;;;;;;;;;;4994681;28;20041;-74
2023/04/30 04:46:52;;;;;;;4.38;2.55;;;;;;;;;;5004959;28;20556;-75
2023/04/30 04:49:19;;;;;;;3.28;2.20;;;;;;;;;;5000280;28;20100;-74
2023/04/30 04:51:45;;;;;;;3.75;2.20;;;;;;;;;;4997690;28;20022;-74
2023/04/30 04:54:12;;;;;;;3.05;1.95;;;;;;;;;;4998755;28;20609;-73
2023/04/30 04:56:38;;;;;;;2.92;1.70;;;;;;;;;;5003070;28;20109;-75
2023/04/30 04:59:04;;;;;;;3.88;2.42;;;;;;;;;;5000839;28;20053;-74
2023/04/30 05:01:30;;;;;;;3.85;2.38;;;;;;;;;;5000715;28;20120;-74
2023/04/30 05:03:56;;;;;;;3.70;2.13;;;;;;;;;;4997754;28;20100;-74
2023/04/30 05:06:22;;;;;;;3.03;1.85;;;;;;;;;;4998647;28;20101;-74
2023/04/30 05:08:49;;;;;;;4.50;2.63;;;;;;;;;;4998705;28;20108;-75
2023/04/30 05:11:15;;;;;;;3.35;2.30;;;;;;;;;;4995710;28;20076;-73
2023/04/30 05:13:41;;;;;;;4.07;2.70;;;;;;;;;;5000054;28;20026;-76
2023/04/30 05:16:07;;;;;;;2.85;2.08;;;;;;;;;;4980058;28;20491;-73
2023/04/30 05:18:34;;;;;;;5.90;2.58;;;;;;;;;;4998980;28;20113;-74
2023/04/30 05:21:00;;;;;;;4.95;2.85;;;;;;;;;;4982815;28;20106;-74
2023/04/30 05:23:27;;;;;;;4.18;2.42;;;;;;;;;;4997845;28;20149;-74
2023/04/30 05:25:54;;;;;;;5.20;2.70;;;;;;;;;;4989394;28;20249;-74
2023/04/30 05:28:20;;;;;;;10.00;3.80;;;;;;;;;;4997976;28;20034;-74
2023/04/30 05:30:46;;;;;;;6.03;3.60;;;;;;;;;;4994520;28;20497;-74
2023/04/30 05:33:12;;;;;;;5.45;4.07;;;;;;;;;;4999184;28;20025;-73
2023/04/30 05:35:38;;;;;;;9.85;6.15;;;;;;;;;;4990697;28;20504;-75
2023/04/30 05:38:05;;;;;;;9.15;5.10;;;;;;;;;;5000385;28;20026;-74
2023/04/30 05:40:31;;;;;;;6.82;5.32;;;;;;;;;;4993673;28;20126;-76
2023/04/30 05:42:57;;;;;;;6.28;4.95;;;;;;;;;;5001462;28;20589;-76
2023/04/30 05:45:24;;;;;;;8.65;5.43;;;;;;;;;;4992224;28;20536;-76
2023/04/30 05:47:50;;;;;;;9.57;5.50;;;;;;;;;;4998838;28;20080;-76
2023/04/30 05:50:16;;;;;;;9.02;6.05;;;;;;;;;;4997540;28;20078;-76
2023/04/30 05:52:42;;;;;;;10.77;7.45;;;;;;;;;;5001441;28;20034;-76
2023/04/30 05:55:09;;;;;;;7.57;5.72;;;;;;;;;;4993799;28;20105;-75
2023/04/30 05:57:36;;;;;;;9.65;6.80;;;;;;;;;;4997024;28;20022;-76
2023/04/30 06:00:05;;;;;;;8.40;6.53;;;;;;;;;;4993816;28;20057;-75
2023/04/30 06:02:31;;;;;;;8.95;7.53;;;;;;;;;;4993418;28;20029;-75
2023/04/30 06:04:57;;;;;;;10.57;7.13;;;;;;;;;;4995723;28;20114;-75
2023/04/30 06:07:24;;;;;;;10.55;7.68;;;;;;;;;;5001928;28;20029;-75
2023/04/30 06:09:50;;;;;;;19.30;8.05;;;;;;;;;;4993742;28;20030;-74
2023/04/30 06:12:16;;;;;;;14.70;8.38;;;;;;;;;;5000801;28;20101;-75
2023/04/30 06:14:44;;;;;;;10.85;8.77;;;;;;;;;;4996258;28;20125;-74
2023/04/30 06:17:10;;;;;;;17.88;7.93;;;;;;;;;;4999526;28;20026;-75
2023/04/30 06:19:37;;;;;;;10.48;7.95;;;;;;;;;;4996626;28;20105;-75
2023/04/30 06:22:04;;;;;;;12.38;8.13;;;;;;;;;;5001041;28;20064;-75
2023/04/30 06:24:30;;;;;;;11.27;8.70;;;;;;;;;;4994507;28;20082;-75
2023/04/30 06:26:56;;;;;;;13.55;9.18;;;;;;;;;;4993209;28;20026;-74
2023/04/30 06:29:23;;;;;;;11.52;7.72;;;;;;;;;;4995095;28;20469;-75
2023/04/30 06:31:50;;;;;;;10.65;8.00;;;;;;;;;;4993732;28;20020;-75
2023/04/30 06:34:16;;;;;;;12.90;8.45;;;;;;;;;;4996784;28;20029;-74
2023/04/30 06:36:42;;;;;;;12.18;8.98;;;;;;;;;;4992785;28;20022;-75
2023/04/30 06:39:09;;;;;;;11.60;9.82;;;;;;;;;;4995570;28;20022;-75
2023/04/30 06:41:35;;;;;;;14.18;8.57;;;;;;;;;;4975293;28;20022;-75
2023/04/30 06:44:01;;;;;;;9.80;8.45;;;;;;;;;;4997709;28;20022;-74
2023/04/30 06:46:27;;;;;;;11.60;8.57;;;;;;;;;;4993543;28;20030;-75
2023/04/30 06:48:53;;;;;;;12.48;8.50;;;;;;;;;;5005633;28;20540;-75
2023/04/30 06:51:20;;;;;;;9.70;8.70;;;;;;;;;;5000201;28;20081;-75
2023/04/30 06:53:46;;;;;;;12.40;8.57;;;;;;;;;;5005503;28;20029;-74
2023/04/30 06:56:12;;;;;;;10.55;7.85;;;;;;;;;;4996553;28;20474;-75
2023/04/30 06:58:38;;;;;;;13.23;7.00;;;;;;;;;;5002990;28;20106;-75
2023/04/30 07:01:04;;;;;;;8.00;6.40;;;;;;;;;;4999554;28;20097;-75
2023/04/30 07:03:32;;;;;;;8.50;6.00;;;;;;;;;;5002976;28;20023;-75
2023/04/30 07:05:58;;;;;;;11.73;6.28;;;;;;;;;;5004210;28;20630;-75
2023/04/30 07:08:24;;;;;;;10.80;6.07;;;;;;;;;;5003878;28;20117;-74
2023/04/30 07:10:50;;;;;;;7.55;5.40;;;;;;;;;;4994212;28;20129;-74
2023/04/30 07:13:17;;;;;;;9.50;6.85;;;;;;;;;;5002470;28;20108;-74
2023/04/30 07:15:43;;;;;;;9.25;6.35;;;;;;;;;;4997706;28;20037;-75
2023/04/30 07:18:09;;;;;;;9.23;6.65;;;;;;;;;;5003262;28;20174;-74
2023/04/30 07:20:35;;;;;;;6.68;5.88;;;;;;;;;;5001858;28;20117;-75
2023/04/30 07:23:02;;;;;;;9.82;6.75;;;;;;;;;;5003186;28;20028;-74
2023/04/30 07:25:28;;;;;;;9.10;6.50;;;;;;;;;;5001303;28;20041;-75
2023/04/30 07:27:55;;;;;;;7.57;5.68;;;;;;;;;;5002040;28;20116;-75
2023/04/30 07:30:21;;;;;;;9.90;4.90;;;;;;;;;;4991683;28;20022;-75
2023/04/30 07:32:47;;;;;;;5.63;4.45;;;;;;;;;;4995895;28;20030;-75
2023/04/30 07:35:14;;;;;;;6.18;4.60;;;;;;;;;;5001312;28;20022;-75
2023/04/30 07:37:42;;;;;;;7.47;4.28;;;;;;;;;;4991390;28;20026;-75
2023/04/30 07:40:11;;;;;;;6.53;4.10;;;;;;;;;;4999285;28;20025;-76
2023/04/30 07:42:40;;;;;;;6.57;5.13;;;;;;;;;;4988520;28;20109;-75
2023/04/30 07:45:06;;;;;;;10.35;6.30;;;;;;;;;;4998678;28;20030;-75
2023/04/30 07:47:32;;;;;;;9.35;6.72;;;;;;;;;;4999863;28;20160;-75
2023/04/30 07:49:58;;;;;;;8.27;5.93;;;;;;;;;;4997560;28;20689;-75
2023/04/30 07:52:25;;;;;;;7.20;5.68;;;;;;;;;;5000521;28;20037;-75
2023/04/30 07:54:51;;;;;;;7.88;5.95;;;;;;;;;;4993442;28;20755;-74
2023/04/30 07:57:17;;;;;;;8.00;6.95;;;;;;;;;;4999438;28;20132;-75
2023/04/30 07:59:43;;;;;;;10.57;6.40;;;;;;;;;;4993893;28;20099;-74
2023/04/30 08:02:09;;;;;;;7.43;6.65;;;;;;;;;;5002350;28;20101;-75
2023/04/30 08:04:35;;;;;;;9.23;5.55;;;;;;;;;;4982405;28;20045;-75
2023/04/30 08:07:03;;;;;;;5.03;4.38;;;;;;;;;;4995464;28;20022;-75
2023/04/30 08:09:29;;;;;;;5.35;4.07;;;;;;;;;;5002913;28;20027;-75
2023/04/30 08:11:56;;;;;;;6.95;4.85;;;;;;;;;;5005484;28;20014;-74
2023/04/30 08:14:22;;;;;;;8.10;4.70;;;;;;;;;;5000480;28;20514;-75
2023/04/30 08:16:48;;;;;;;7.60;4.50;;;;;;;;;;5002534;28;20112;-75
2023/04/30 08:19:14;;;;;;;4.95;3.78;;;;;;;;;;5002690;28;20572;-75
2023/04/30 08:21:40;;;;;;;5.65;4.38;;;;;;;;;;4995596;28;20128;-75
2023/04/30 08:24:07;;;;;;;10.32;4.65;;;;;;;;;;5001747;28;20023;-74
2023/04/30 08:26:33;;;;;;;5.18;4.30;;;;;;;;;;4999773;28;20513;-75
2023/04/30 08:28:59;;;;;;;6.40;4.07;;;;;;;;;;4999412;28;20043;-76
2023/04/30 08:31:25;;;;;;;7.78;4.50;;;;;;;;;;4996802;28;20595;-75
2023/04/30 08:33:51;;;;;;;6.60;4.40;;;;;;;;;;4982227;28;20057;-75
2023/04/30 08:36:18;;;;;;;5.35;4.47;;;;;;;;;;4983114;28;20566;-75
2023/04/30 08:38:44;;;;;;;6.55;4.70;;;;;;;;;;4996810;28;20109;-76
2023/04/30 08:41:11;;;;;;;9.52;4.82;;;;;;;;;;4997355;28;20054;-75
2023/04/30 08:43:38;;;;;;;7.07;4.70;;;;;;;;;;4986287;28;20037;-75
2023/04/30 08:46:05;;;;;;;6.65;4.57;;;;;;;;;;4996156;28;20036;-75
2023/04/30 08:48:31;;;;;;;7.35;4.97;;;;;;;;;;4980159;28;20049;-75
2023/04/30 08:51:01;;;;;;;6.90;5.18;;;;;;;;;;4999187;28;20662;-75
2023/04/30 08:53:27;;;;;;;8.95;5.10;;;;;;;;;;5002441;28;20030;-75
2023/04/30 08:55:53;;;;;;;6.30;4.88;;;;;;;;;;4990346;28;20022;-75
2023/04/30 08:58:20;;;;;;;7.40;5.13;;;;;;;;;;5004572;28;20541;-75
2023/04/30 09:00:46;;;;;;;9.65;5.20;;;;;;;;;;4996936;28;20069;-75
2023/04/30 09:03:12;;;;;;;7.53;5.47;;;;;;;;;;5003419;28;20025;-75
2023/04/30 09:05:40;;;;;;;8.75;5.63;;;;;;;;;;4998112;28;20034;-75
2023/04/30 09:08:07;;;;;;;8.57;5.28;;;;;;;;;;4996303;28;20513;-75
2023/04/30 09:10:35;;;;;;;8.05;5.50;;;;;;;;;;4999071;28;20180;-74
2023/04/30 09:13:02;;;;;;;8.70;6.00;;;;;;;;;;4998302;28;20685;-75
2023/04/30 09:15:29;;;;;;;8.98;5.65;;;;;;;;;;4994474;28;20030;-76
2023/04/30 09:18:16;;;;;;;10.38;5.88;;;;;;;;;;4999614;28;20021;-75
2023/04/30 09:21:00;;;;;;;8.18;5.57;;;;;;;;;;5000601;28;20113;-75
2023/04/30 09:23:26;;;;;;;7.55;6.03;;;;;;;;;;4994099;28;20009;-75
2023/04/30 09:25:52;;;;;;;7.65;5.68;;;;;;;;;;4996725;28;20113;-75
2023/04/30 09:28:22;;;;;;;9.88;6.53;;;;;;;;;;5000579;28;20050;-74
2023/04/30 09:30:49;;;;;;;9.07;6.05;;;;;;;;;;4994308;28;20435;-75
2023/04/30 09:33:15;;;;;;;8.68;6.00;;;;;;;;;;5003875;28;20029;-75
2023/04/30 09:35:42;;;;;;;13.45;6.78;;;;;;;;;;4994751;28;20045;-75
2023/04/30 09:38:24;;;;;;;7.70;5.68;;;;;;;;;;4999176;28;20084;-75
2023/04/30 09:40:50;;;;;;;7.28;6.28;;;;;;;;;;4993009;28;20024;-76
2023/04/30 09:43:16;;;;;;;9.27;5.43;;;;;;;;;;4996612;28;20164;-76
2023/04/30 09:45:47;;;;;;;7.93;5.78;;;;;;;;;;4996252;28;20024;-76
2023/04/30 09:48:18;;;;;;;6.60;5.77;;;;;;;;;;4999461;28;20652;-75
2023/04/30 09:50:45;;;;;;;8.55;5.80;;;;;;;;;;5002531;28;20473;-75
2023/04/30 09:53:16;;;;;;;6.78;5.30;;;;;;;;;;4997963;28;20050;-74
2023/04/30 09:55:44;;;;;;;10.38;5.90;;;;;;;;;;5002466;28;20781;-75
2023/04/30 09:58:10;;;;;;;8.05;5.35;;;;;;;;;;4996974;28;20021;-74
2023/04/30 10:00:38;;;;;;;11.02;5.40;;;;;;;;;;4993294;28;20057;-75
2023/04/30 10:03:08;;;;;;;10.15;5.00;;;;;;;;;;4996892;28;20026;-75
2023/04/30 10:05:38;;;;;;;8.00;5.43;;;;;;;;;;4994030;28;20025;-74
2023/04/30 10:08:13;;;;;;;8.40;6.10;;;;;;;;;;5003123;28;20482;-75
2023/04/30 10:10:40;;;;;;;9.52;7.55;;;;;;;;;;4992219;28;20769;-75
2023/04/30 10:13:09;;;;;;;8.60;7.70;;;;;;;;;;4986297;28;20537;-75
2023/04/30 10:15:38;;;;;;;14.85;8.82;;;;;;;;;;4992965;28;20486;-75
2023/04/30 10:18:06;;;;;;;15.85;9.45;;;;;;;;;;5003593;28;20397;-75
2023/04/30 10:20:36;;;;;;;12.38;10.32;;;;;;;;;;4997142;28;20021;-75
2023/04/30 10:23:02;;;;;;;15.68;12.63;;;;;;;;;;5001945;28;20803;-75
2023/04/30 10:25:28;;;;;;;13.82;11.65;;;;;;;;;;5000636;28;20032;-75
2023/04/30 10:27:55;;;;;;;13.65;10.93;;;;;;;;;;4988862;28;20042;-75
2023/04/30 10:30:22;;;;;;;17.40;11.60;;;;;;;;;;5005329;28;20478;-75
2023/04/30 10:32:56;;;;;;;15.98;11.98;;;;;;;;;;5004162;28;20546;-74
2023/04/30 10:35:26;;;;;;;18.67;11.30;;;;;;;;;;5003105;28;20026;-75
2023/04/30 10:38:12;;;;;;;16.00;11.32;;;;;;;;;;5008185;28;20030;-75
2023/04/30 10:40:38;;;;;;;13.73;11.30;;;;;;;;;;4984741;28;20034;-74
2023/04/30 10:43:05;;;;;;;13.70;9.98;;;;;;;;;;5003174;28;20861;-75
2023/04/30 10:45:36;;;;;;;17.17;12.82;;;;;;;;;;4997112;28;20073;-74
2023/04/30 10:48:02;;;;;;;17.53;13.07;;;;;;;;;;5008808;28;20021;-75
2023/04/30 10:50:32;;;;;;;15.55;12.10;;;;;;;;;;5007434;28;20064;-75
2023/04/30 10:53:02;;;;;;;16.35;13.15;;;;;;;;;;5003997;28;20117;-75
2023/04/30 10:55:29;;;;;;;19.88;15.13;;;;;;;;;;4996499;28;20026;-75
2023/04/30 10:57:57;;;;;;;18.25;12.48;;;;;;;;;;5005120;28;20479;-75
2023/04/30 11:00:27;;;;;;;16.17;11.02;;;;;;;;;;5002250;28;20046;-75
2023/04/30 11:03:03;;;;;;;20.85;15.68;;;;;;;;;;5002794;28;20021;-76
2023/04/30 11:05:36;;;;;;;16.27;12.95;;;;;;;;;;5003805;28;20057;-76
2023/04/30 11:08:03;;;;;;;21.83;15.27;;;;;;;;;;5008455;28;20030;-75
2023/04/30 11:10:32;;;;;;;16.65;13.30;;;;;;;;;;5001456;28;20405;-75
2023/04/30 11:12:59;;;;;;;19.75;14.85;;;;;;;;;;5009325;28;20049;-75
2023/04/30 11:15:26;;;;;;;18.77;15.02;;;;;;;;;;4999967;28;20097;-75
2023/04/30 11:17:56;;;;;;;21.90;15.90;;;;;;;;;;4997735;28;20109;-75
2023/04/30 11:20:23;;;;;;;21.48;14.93;;;;;;;;;;4997093;28;20475;-76
2023/04/30 11:23:10;;;;;;;23.58;15.95;;;;;;;;;;5006888;28;20033;-76
2023/04/30 11:25:40;;;;;;;20.73;16.50;;;;;;;;;;4981458;28;20659;-75
2023/04/30 11:28:06;;;;;;;20.90;15.57;;;;;;;;;;5000847;28;20133;-74
2023/04/30 11:30:33;;;;;;;18.95;15.93;;;;;;;;;;4981984;28;20449;-75
2023/04/30 11:32:59;;;;;;;20.25;16.00;;;;;;;;;;5001713;28;20359;-75
2023/04/30 11:35:25;;;;;;;21.77;18.02;;;;;;;;;;4993351;28;20022;-75
2023/04/30 11:37:54;;;;;;;23.88;18.58;;;;;;;;;;4999492;28;20026;-76
2023/04/30 11:40:21;;;;;;;25.67;19.52;;;;;;;;;;5000197;28;20373;-74
2023/04/30 11:42:47;;;;;;;23.70;20.27;;;;;;;;;;4997363;28;20022;-75
2023/04/30 11:45:14;;;;;;;27.02;21.45;;;;;;;;;;4999964;28;20057;-75
2023/04/30 11:47:47;;;;;;;26.50;21.10;;;;;;;;;;5003441;28;20479;-74
2023/04/30 11:50:14;;;;;;;25.17;20.08;;;;;;;;;;4991609;28;20030;-75
2023/04/30 11:52:41;;;;;;;26.75;21.50;;;;;;;;;;4996299;28;20037;-74
2023/04/30 11:55:14;;;;;;;28.90;21.67;;;;;;;;;;4974296;28;21517;-75
2023/04/30 11:57:46;;;;;;;27.58;22.02;;;;;;;;;;4996406;28;20033;-74
2023/04/30 12:00:13;;;;;;;29.00;22.48;;;;;;;;;;4996395;28;20045;-75
2023/04/30 12:02:39;;;;;;;30.77;23.42;;;;;;;;;;4994453;28;20037;-75
2023/04/30 12:05:12;;;;;;;28.98;22.88;;;;;;;;;;4994814;28;20034;-75
2023/04/30 12:07:39;;;;;;;26.98;20.08;;;;;;;;;;5001834;28;20026;-75
2023/04/30 12:10:05;;;;;;;23.80;19.15;;;;;;;;;;4981628;28;20022;-75
2023/04/30 12:12:31;;;;;;;35.65;19.80;;;;;;;;;;5000817;28;20029;-74
2023/04/30 12:14:58;;;;;;;26.90;20.45;;;;;;;;;;5000506;28;20786;-75
2023/04/30 12:17:31;;;;;;;27.63;20.38;;;;;;;;;;5003213;28;20021;-75
2023/04/30 12:19:57;;;;;;;25.63;20.75;;;;;;;;;;5001862;28;20029;-74
2023/04/30 12:22:24;;;;;;;26.50;21.05;;;;;;;;;;5003770;28;20025;-76
2023/04/30 12:24:50;;;;;;;23.80;19.88;;;;;;;;;;4982832;28;20109;-75
2023/04/30 12:27:17;;;;;;;23.27;19.52;;;;;;;;;;5001061;28;20453;-76
2023/04/30 12:29:47;;;;;;;23.35;18.33;;;;;;;;;;4999311;28;20042;-75
2023/04/30 12:32:15;;;;;;;23.95;19.55;;;;;;;;;;5004731;28;20026;-76
2023/04/30 12:34:41;;;;;;;26.05;20.58;;;;;;;;;;5000420;28;20034;-75
2023/04/30 12:37:08;;;;;;;28.98;20.75;;;;;;;;;;5004820;28;20550;-75
2023/04/30 12:39:35;;;;;;;25.95;20.38;;;;;;;;;;5001410;28;20077;-75
2023/04/30 12:42:03;;;;;;;28.40;20.45;;;;;;;;;;5004879;28;20080;-76
2023/04/30 12:44:29;;;;;;;27.00;21.48;;;;;;;;;;4981137;28;20426;-75
2023/04/30 12:46:56;;;;;;;26.38;20.80;;;;;;;;;;5002134;28;20057;-74
2023/04/30 12:49:27;;;;;;;26.60;22.92;;;;;;;;;;4981213;28;20414;-75
2023/04/30 12:52:06;;;;;;;27.00;21.35;;;;;;;;;;4999186;28;20109;-75
2023/04/30 12:54:33;;;;;;;27.27;23.50;;;;;;;;;;4996475;28;20057;-75
2023/04/30 12:57:03;;;;;;;26.10;22.70;;;;;;;;;;5001770;28;20037;-76
2023/04/30 12:59:31;;;;;;;31.27;24.27;;;;;;;;;;4996974;28;20046;-75
2023/04/30 13:02:15;;;;;;;33.42;25.65;;;;;;;;;;5001948;28;20379;-75
2023/04/30 13:04:42;;;;;;;29.38;25.17;;;;;;;;;;4995039;28;20069;-75
2023/04/30 13:07:08;;;;;;;29.70;25.33;;;;;;;;;;4998660;28;20445;-74
2023/04/30 13:09:35;;;;;;;35.13;25.92;;;;;;;;;;5003295;28;20095;-76
2023/04/30 13:12:02;;;;;;;33.13;24.75;;;;;;;;;;5000822;28;20033;-75
2023/04/30 13:14:28;;;;;;;29.75;25.45;;;;;;;;;;5002278;28;20034;-74
2023/04/30 13:16:54;;;;;;;27.40;24.02;;;;;;;;;;4997189;28;20101;-75
2023/04/30 13:19:21;;;;;;;27.08;22.55;;;;;;;;;;5003452;28;20030;-76
2023/04/30 13:21:47;;;;;;;22.83;18.63;;;;;;;;;;4977745;28;20046;-75
2023/04/30 13:24:13;;;;;;;24.83;19.23;;;;;;;;;;4994723;28;20411;-75
2023/04/30 13:26:40;;;;;;;21.58;17.48;;;;;;;;;;4995406;28;20108;-75
2023/04/30 13:29:06;;;;;;;20.98;15.60;;;;;;;;;;5003598;28;20041;-74
2023/04/30 13:31:32;;;;;;;22.50;16.75;;;;;;;;;;4998178;28;20017;-74
2023/04/30 13:33:58;;;;;;;18.92;14.30;;;;;;;;;;4999951;28;20049;-74
2023/04/30 13:36:25;;;;;;;15.68;11.00;;;;;;;;;;4997085;28;20018;-76
2023/04/30 13:38:52;;;;;;;14.52;9.73;;;;;;;;;;4997813;28;20025;-76
2023/04/30 13:41:20;;;;;;;11.50;7.57;;;;;;;;;;4998213;28;20310;-75
2023/04/30 13:43:46;;;;;;;10.05;5.57;;;;;;;;;;4997754;28;20034;-75
2023/04/30 13:46:12;;;;;;;13.68;5.93;;;;;;;;;;4995189;28;20038;-75
2023/04/30 13:48:39;;;;;;;7.03;4.97;;;;;;;;;;4995909;28;20532;-75
2023/04/30 13:51:05;;;;;;;9.25;6.55;;;;;;;;;;5002739;28;20482;-75
2023/04/30 13:53:31;;;;;;;14.00;7.40;;;;;;;;;;5000219;28;20117;-75
2023/04/30 13:55:58;;;;;;;11.25;7.70;;;;;;;;;;4993278;28;20097;-75
2023/04/30 13:58:24;;;;;;;11.50;6.88;;;;;;;;;;4995820;28;20018;-75
2023/04/30 14:00:51;;;;;;;8.18;5.55;;;;;;;;;;4996717;28;20592;-75
2023/04/30 14:03:18;;;;;;;7.53;5.28;;;;;;;;;;5003278;28;20504;-75
2023/04/30 14:05:45;;;;;;;10.27;5.15;;;;;;;;;;4997722;28;20112;-75
2023/04/30 14:08:11;;;;;;;8.73;4.95;;;;;;;;;;4996857;28;20036;-74
2023/04/30 14:10:37;;;;;;;10.60;4.63;;;;;;;;;;4992691;28;20040;-75
2023/04/30 14:13:04;;;;;;;8.63;4.25;;;;;;;;;;5001058;28;20117;-74
2023/04/30 14:15:31;;;;;;;9.57;4.70;;;;;;;;;;4993013;28;20097;-76
2023/04/30 14:17:59;;;;;;;13.30;5.68;;;;;;;;;;5003252;28;20060;-74
2023/04/30 14:20:25;;;;;;;8.23;4.90;;;;;;;;;;4993012;28;20041;-74
2023/04/30 14:22:51;;;;;;;12.00;5.20;;;;;;;;;;5000390;28;20108;-75
2023/04/30 14:25:18;;;;;;;11.45;6.35;;;;;;;;;;4998820;28;20030;-75
2023/04/30 14:27:44;;;;;;;10.18;6.30;;;;;;;;;;5001064;28;20117;-75
2023/04/30 14:30:10;;;;;;;9.75;5.75;;;;;;;;;;4992973;28;20030;-75
2023/04/30 14:32:37;;;;;;;13.48;6.80;;;;;;;;;;4999349;28;20096;-75
2023/04/30 14:35:04;;;;;;;9.60;7.25;;;;;;;;;;4995530;28;20065;-76
2023/04/30 14:37:30;;;;;;;13.15;7.13;;;;;;;;;;5000922;28;20045;-76